sensor_id;sensor_type;location;lat;lon;timestamp;pressure;altitude;pressure_sealevel;temperature;humidity
44934;BME280;30667;43.614;1.442;2023-06-26T00:01:41;100548.25;;;23.65;100.00
44934;BME280;30667;43.614;1.442;2023-06-26T00:04:07;100541.41;;;23.75;100.00
44934;BME280;30667;43.614;1.442;2023-06-26T00:06:33;100542.66;;;23.78;100.00
44934;BME280;30667;43.614;1.442;2023-06-26T00:09:00;100552.09;;;23.76;100.00
44934;BME280;30667;43.614;1.442;2023-06-26T00:11:26;100550.59;;;23.79;100.00
44934;BME280;30667;43.614;1.442;2023-06-26T00:13:52;100551.19;;;23.72;100.00
44934;BME280;30667;43.614;1.442;2023-06-26T00:16:18;100557.94;;;23.59;100.00
44934;BME280;30667;43.614;1.442;2023-06-26T00:18:43;100549.25;;;23.73;100.00
44934;BME280;30667;43.614;1.442;2023-06-26T00:21:08;100543.66;;;23.85;100.00
44934;BME280;30667;43.614;1.442;2023-06-26T00:23:34;100554.38;;;23.58;100.00
44934;BME280;30667;43.614;1.442;2023-06-26T00:26:03;100539.44;;;23.75;100.00
44934;BME280;30667;43.614;1.442;2023-06-26T00:28:28;100542.53;;;23.58;100.00
44934;BME280;30667;43.614;1.442;2023-06-26T00:30:53;100544.13;;;23.31;100.00
44934;BME280;30667;43.614;1.442;2023-06-26T00:33:19;100542.09;;;23.28;100.00
44934;BME280;30667;43.614;1.442;2023-06-26T00:35:44;100548.06;;;23.30;100.00
44934;BME280;30667;43.614;1.442;2023-06-26T00:38:09;100543.03;;;23.48;100.00
44934;BME280;30667;43.614;1.442;2023-06-26T00:40:35;100539.38;;;23.44;100.00
44934;BME280;30667;43.614;1.442;2023-06-26T00:43:01;100543.78;;;23.32;100.00
44934;BME280;30667;43.614;1.442;2023-06-26T00:45:27;100541.53;;;23.22;100.00
44934;BME280;30667;43.614;1.442;2023-06-26T00:47:52;100530.53;;;23.10;100.00
44934;BME280;30667;43.614;1.442;2023-06-26T00:50:19;100536.38;;;23.20;100.00
44934;BME280;30667;43.614;1.442;2023-06-26T00:52:44;100540.84;;;23.25;100.00
44934;BME280;30667;43.614;1.442;2023-06-26T00:55:10;100540.13;;;23.28;100.00
44934;BME280;30667;43.614;1.442;2023-06-26T00:57:36;100534.97;;;23.27;100.00
44934;BME280;30667;43.614;1.442;2023-06-26T01:00:02;100531.91;;;23.44;100.00
44934;BME280;30667;43.614;1.442;2023-06-26T01:02:29;100535.75;;;23.27;100.00
44934;BME280;30667;43.614;1.442;2023-06-26T01:05:00;100525.91;;;23.42;100.00
44934;BME280;30667;43.614;1.442;2023-06-26T01:07:28;100523.09;;;23.54;100.00
44934;BME280;30667;43.614;1.442;2023-06-26T01:09:54;100521.41;;;23.21;100.00
44934;BME280;30667;43.614;1.442;2023-06-26T01:12:19;100524.88;;;23.06;100.00
44934;BME280;30667;43.614;1.442;2023-06-26T01:14:45;100516.75;;;23.38;100.00
44934;BME280;30667;43.614;1.442;2023-06-26T01:17:11;100512.56;;;23.44;100.00
44934;BME280;30667;43.614;1.442;2023-06-26T01:19:42;100510.31;;;23.34;100.00
44934;BME280;30667;43.614;1.442;2023-06-26T01:27:52;100525.81;;;23.38;100.00
44934;BME280;30667;43.614;1.442;2023-06-26T01:30:19;100511.75;;;23.44;100.00
44934;BME280;30667;43.614;1.442;2023-06-26T01:32:46;100516.94;;;23.45;100.00
44934;BME280;30667;43.614;1.442;2023-06-26T01:35:13;100517.78;;;23.62;100.00
44934;BME280;30667;43.614;1.442;2023-06-26T01:37:39;100526.06;;;23.62;100.00
44934;BME280;30667;43.614;1.442;2023-06-26T01:40:05;100522.16;;;23.34;100.00
44934;BME280;30667;43.614;1.442;2023-06-26T01:42:32;100526.03;;;23.17;100.00
44934;BME280;30667;43.614;1.442;2023-06-26T01:45:07;100525.50;;;23.28;100.00
44934;BME280;30667;43.614;1.442;2023-06-26T01:47:38;100532.00;;;23.19;100.00
44934;BME280;30667;43.614;1.442;2023-06-26T01:50:10;100530.75;;;23.04;100.00
44934;BME280;30667;43.614;1.442;2023-06-26T01:52:41;100522.56;;;23.20;100.00
44934;BME280;30667;43.614;1.442;2023-06-26T01:55:28;100525.16;;;23.29;100.00
44934;BME280;30667;43.614;1.442;2023-06-26T01:57:58;100531.69;;;23.37;100.00
44934;BME280;30667;43.614;1.442;2023-06-26T02:00:25;100531.16;;;23.31;100.00
44934;BME280;30667;43.614;1.442;2023-06-26T02:02:52;100527.56;;;23.31;100.00
44934;BME280;30667;43.614;1.442;2023-06-26T02:05:17;100529.72;;;23.21;100.00
44934;BME280;30667;43.614;1.442;2023-06-26T02:07:43;100519.28;;;23.02;100.00
44934;BME280;30667;43.614;1.442;2023-06-26T02:10:09;100530.06;;;23.20;100.00
44934;BME280;30667;43.614;1.442;2023-06-26T02:12:36;100529.75;;;23.09;100.00
44934;BME280;30667;43.614;1.442;2023-06-26T02:15:02;100529.41;;;22.98;100.00
44934;BME280;30667;43.614;1.442;2023-06-26T02:17:27;100524.22;;;22.97;100.00
44934;BME280;30667;43.614;1.442;2023-06-26T02:19:53;100513.41;;;23.04;100.00
44934;BME280;30667;43.614;1.442;2023-06-26T02:22:18;100524.22;;;23.09;100.00
44934;BME280;30667;43.614;1.442;2023-06-26T02:24:44;100527.06;;;23.13;100.00
44934;BME280;30667;43.614;1.442;2023-06-26T02:27:09;100531.19;;;23.07;100.00
44934;BME280;30667;43.614;1.442;2023-06-26T02:29:35;100531.66;;;23.21;100.00
44934;BME280;30667;43.614;1.442;2023-06-26T02:32:01;100528.22;;;23.12;100.00
44934;BME280;30667;43.614;1.442;2023-06-26T02:34:27;100527.91;;;23.01;100.00
44934;BME280;30667;43.614;1.442;2023-06-26T02:36:53;100526.63;;;23.11;100.00
44934;BME280;30667;43.614;1.442;2023-06-26T02:39:21;100517.94;;;22.84;100.00
44934;BME280;30667;43.614;1.442;2023-06-26T02:41:47;100522.13;;;23.06;100.00
44934;BME280;30667;43.614;1.442;2023-06-26T02:44:12;100516.25;;;23.20;100.00
44934;BME280;30667;43.614;1.442;2023-06-26T02:46:39;100514.63;;;23.07;100.00
44934;BME280;30667;43.614;1.442;2023-06-26T02:49:05;100518.44;;;23.02;100.00
44934;BME280;30667;43.614;1.442;2023-06-26T02:51:34;100517.09;;;23.08;100.00
44934;BME280;30667;43.614;1.442;2023-06-26T02:54:00;100517.75;;;23.05;100.00
44934;BME280;30667;43.614;1.442;2023-06-26T02:56:26;100524.03;;;22.90;100.00
44934;BME280;30667;43.614;1.442;2023-06-26T02:58:54;100517.00;;;22.92;100.00
44934;BME280;30667;43.614;1.442;2023-06-26T03:01:19;100521.72;;;22.79;100.00
44934;BME280;30667;43.614;1.442;2023-06-26T03:03:45;100519.38;;;23.06;100.00
44934;BME280;30667;43.614;1.442;2023-06-26T03:06:12;100525.84;;;22.98;100.00
44934;BME280;30667;43.614;1.442;2023-06-26T03:08:38;100517.66;;;23.14;100.00
44934;BME280;30667;43.614;1.442;2023-06-26T03:11:05;100512.56;;;23.16;100.00
44934;BME280;30667;43.614;1.442;2023-06-26T03:13:31;100519.38;;;23.06;100.00
44934;BME280;30667;43.614;1.442;2023-06-26T03:15:56;100525.06;;;22.85;100.00
44934;BME280;30667;43.614;1.442;2023-06-26T03:18:22;100526.72;;;23.02;100.00
44934;BME280;30667;43.614;1.442;2023-06-26T03:20:47;100520.16;;;23.19;100.00
44934;BME280;30667;43.614;1.442;2023-06-26T03:23:13;100522.59;;;23.08;100.00
44934;BME280;30667;43.614;1.442;2023-06-26T03:25:38;100523.97;;;23.14;100.00
44934;BME280;30667;43.614;1.442;2023-06-26T03:28:04;100524.03;;;22.90;100.00
44934;BME280;30667;43.614;1.442;2023-06-26T03:30:29;100527.34;;;23.08;100.00
44934;BME280;30667;43.614;1.442;2023-06-26T03:32:55;100524.25;;;22.84;100.00
44934;BME280;30667;43.614;1.442;2023-06-26T03:35:21;100523.38;;;22.68;100.00
44934;BME280;30667;43.614;1.442;2023-06-26T03:37:48;100527.63;;;22.65;100.00
44934;BME280;30667;43.614;1.442;2023-06-26T03:40:14;100524.84;;;22.65;100.00
44934;BME280;30667;43.614;1.442;2023-06-26T03:42:39;100531.31;;;22.57;100.00
44934;BME280;30667;43.614;1.442;2023-06-26T03:45:05;100524.06;;;22.65;100.00
44934;BME280;30667;43.614;1.442;2023-06-26T03:47:31;100529.56;;;22.65;100.00
44934;BME280;30667;43.614;1.442;2023-06-26T03:49:56;100525.69;;;22.54;100.00
44934;BME280;30667;43.614;1.442;2023-06-26T03:52:21;100529.47;;;22.49;100.00
44934;BME280;30667;43.614;1.442;2023-06-26T03:54:47;100524.75;;;22.62;100.00
44934;BME280;30667;43.614;1.442;2023-06-26T03:57:14;100528.19;;;22.59;100.00
44934;BME280;30667;43.614;1.442;2023-06-26T03:59:39;100530.50;;;22.57;100.00
44934;BME280;30667;43.614;1.442;2023-06-26T04:02:04;100533.97;;;22.54;100.00
44934;BME280;30667;43.614;1.442;2023-06-26T04:04:30;100531.19;;;22.54;100.00
44934;BME280;30667;43.614;1.442;2023-06-26T04:06:55;100531.53;;;22.52;100.00
44934;BME280;30667;43.614;1.442;2023-06-26T04:09:21;100534.88;;;22.45;100.00
44934;BME280;30667;43.614;1.442;2023-06-26T04:11:46;100525.25;;;22.52;100.00
44934;BME280;30667;43.614;1.442;2023-06-26T04:14:12;100530.06;;;22.42;100.00
44934;BME280;30667;43.614;1.442;2023-06-26T04:16:38;100526.84;;;22.40;100.00
44934;BME280;30667;43.614;1.442;2023-06-26T04:19:03;100524.78;;;22.37;100.00
44934;BME280;30667;43.614;1.442;2023-06-26T04:21:30;100526.38;;;22.38;100.00
44934;BME280;30667;43.614;1.442;2023-06-26T04:23:56;100529.38;;;22.33;100.00
44934;BME280;30667;43.614;1.442;2023-06-26T04:26:21;100534.44;;;22.31;100.00
44934;BME280;30667;43.614;1.442;2023-06-26T04:28:47;100536.72;;;22.29;100.00
44934;BME280;30667;43.614;1.442;2023-06-26T04:31:12;100534.16;;;22.24;100.00
44934;BME280;30667;43.614;1.442;2023-06-26T04:33:38;100536.22;;;22.27;100.00
44934;BME280;30667;43.614;1.442;2023-06-26T04:36:04;100531.34;;;22.33;100.00
44934;BME280;30667;43.614;1.442;2023-06-26T04:38:30;100528.69;;;22.36;100.00
44934;BME280;30667;43.614;1.442;2023-06-26T04:40:56;100533.06;;;22.37;100.00
44934;BME280;30667;43.614;1.442;2023-06-26T04:43:21;100537.84;;;22.28;100.00
44934;BME280;30667;43.614;1.442;2023-06-26T04:45:47;100542.44;;;22.24;100.00
44934;BME280;30667;43.614;1.442;2023-06-26T04:48:12;100536.50;;;22.34;100.00
44934;BME280;30667;43.614;1.442;2023-06-26T04:50:38;100535.69;;;22.34;100.00
44934;BME280;30667;43.614;1.442;2023-06-26T04:53:03;100536.72;;;22.29;100.00
44934;BME280;30667;43.614;1.442;2023-06-26T04:55:29;100542.09;;;22.25;100.00
44934;BME280;30667;43.614;1.442;2023-06-26T04:57:55;100538.28;;;22.18;100.00
44934;BME280;30667;43.614;1.442;2023-06-26T05:00:20;100545.88;;;22.21;100.00
44934;BME280;30667;43.614;1.442;2023-06-26T05:02:46;100549.31;;;22.18;100.00
44934;BME280;30667;43.614;1.442;2023-06-26T05:05:11;100544.28;;;22.20;100.00
44934;BME280;30667;43.614;1.442;2023-06-26T05:07:38;100550.59;;;22.20;100.00
44934;BME280;30667;43.614;1.442;2023-06-26T05:10:03;100542.66;;;22.19;100.00
44934;BME280;30667;43.614;1.442;2023-06-26T05:12:29;100546.22;;;22.19;100.00
44934;BME280;30667;43.614;1.442;2023-06-26T05:14:54;100543.25;;;22.12;100.00
44934;BME280;30667;43.614;1.442;2023-06-26T05:17:20;100541.03;;;22.18;100.00
44934;BME280;30667;43.614;1.442;2023-06-26T05:19:46;100538.06;;;22.10;100.00
44934;BME280;30667;43.614;1.442;2023-06-26T05:22:12;100535.53;;;22.18;100.00
44934;BME280;30667;43.614;1.442;2023-06-26T05:24:39;100536.47;;;22.22;100.00
44934;BME280;30667;43.614;1.442;2023-06-26T05:27:05;100540.59;;;22.16;100.00
44934;BME280;30667;43.614;1.442;2023-06-26T05:29:31;100543.69;;;22.14;100.00
44934;BME280;30667;43.614;1.442;2023-06-26T05:31:58;100540.94;;;22.14;100.00
44934;BME280;30667;43.614;1.442;2023-06-26T05:34:23;100541.97;;;22.09;100.00
44934;BME280;30667;43.614;1.442;2023-06-26T05:36:57;100544.72;;;22.09;100.00
44934;BME280;30667;43.614;1.442;2023-06-26T05:39:24;100546.91;;;22.04;100.00
44934;BME280;30667;43.614;1.442;2023-06-26T05:41:50;100553.09;;;22.01;100.00
44934;BME280;30667;43.614;1.442;2023-06-26T05:44:16;100551.41;;;22.08;100.00
44934;BME280;30667;43.614;1.442;2023-06-26T05:46:41;100563.22;;;22.09;100.00
44934;BME280;30667;43.614;1.442;2023-06-26T05:49:07;100559.66;;;22.21;100.00
44934;BME280;30667;43.614;1.442;2023-06-26T05:51:32;100557.59;;;22.67;100.00
44934;BME280;30667;43.614;1.442;2023-06-26T05:54:00;100561.41;;;22.62;100.00
44934;BME280;30667;43.614;1.442;2023-06-26T05:56:26;100567.25;;;22.73;100.00
44934;BME280;30667;43.614;1.442;2023-06-26T05:58:52;100562.81;;;22.56;100.00
44934;BME280;30667;43.614;1.442;2023-06-26T06:01:18;100560.25;;;22.63;100.00
44934;BME280;30667;43.614;1.442;2023-06-26T06:03:44;100565.31;;;22.61;100.00
44934;BME280;30667;43.614;1.442;2023-06-26T06:06:10;100565.31;;;22.61;100.00
44934;BME280;30667;43.614;1.442;2023-06-26T06:08:36;100569.22;;;22.73;100.00
44934;BME280;30667;43.614;1.442;2023-06-26T06:11:01;100566.81;;;22.59;100.00
44934;BME280;30667;43.614;1.442;2023-06-26T06:13:27;100579.34;;;22.56;100.00
44934;BME280;30667;43.614;1.442;2023-06-26T06:15:53;100570.94;;;22.65;100.00
44934;BME280;30667;43.614;1.442;2023-06-26T06:18:18;100576.66;;;22.84;100.00
44934;BME280;30667;43.614;1.442;2023-06-26T06:20:44;100584.47;;;22.95;100.00
44934;BME280;30667;43.614;1.442;2023-06-26T06:23:09;100578.13;;;22.94;100.00
44934;BME280;30667;43.614;1.442;2023-06-26T06:25:34;100579.66;;;23.04;100.00
44934;BME280;30667;43.614;1.442;2023-06-26T06:28:00;100576.66;;;22.97;100.00
44934;BME280;30667;43.614;1.442;2023-06-26T06:30:25;100574.56;;;23.06;100.00
44934;BME280;30667;43.614;1.442;2023-06-26T06:32:51;100575.50;;;22.98;100.00
44934;BME280;30667;43.614;1.442;2023-06-26T06:35:18;100584.25;;;23.12;100.00
44934;BME280;30667;43.614;1.442;2023-06-26T06:37:44;100591.25;;;23.10;100.00
44934;BME280;30667;43.614;1.442;2023-06-26T06:40:10;100587.56;;;23.18;100.00
44934;BME280;30667;43.614;1.442;2023-06-26T06:42:35;100584.84;;;22.93;100.00
44934;BME280;30667;43.614;1.442;2023-06-26T06:45:05;100584.38;;;22.91;100.00
44934;BME280;30667;43.614;1.442;2023-06-26T06:47:31;100589.50;;;23.17;100.00
44934;BME280;30667;43.614;1.442;2023-06-26T06:49:57;100587.00;;;23.00;100.00
44934;BME280;30667;43.614;1.442;2023-06-26T06:52:22;100584.81;;;23.06;100.00
44934;BME280;30667;43.614;1.442;2023-06-26T06:57:18;100590.91;;;22.99;100.00
44934;BME280;30667;43.614;1.442;2023-06-26T06:59:44;100598.72;;;22.97;100.00
44934;BME280;30667;43.614;1.442;2023-06-26T07:02:10;100584.00;;;22.93;100.00
44934;BME280;30667;43.614;1.442;2023-06-26T07:04:35;100593.00;;;22.90;100.00
44934;BME280;30667;43.614;1.442;2023-06-26T07:07:00;100594.84;;;22.85;100.00
44934;BME280;30667;43.614;1.442;2023-06-26T07:09:26;100595.72;;;23.02;100.00
44934;BME280;30667;43.614;1.442;2023-06-26T07:11:51;100592.53;;;23.12;100.00
44934;BME280;30667;43.614;1.442;2023-06-26T07:14:16;100592.34;;;23.33;100.00
44934;BME280;30667;43.614;1.442;2023-06-26T07:16:42;100590.28;;;23.30;100.00
44934;BME280;30667;43.614;1.442;2023-06-26T07:19:07;100588.63;;;22.89;100.00
44934;BME280;30667;43.614;1.442;2023-06-26T07:21:32;100586.19;;;22.99;100.00
44934;BME280;30667;43.614;1.442;2023-06-26T07:23:58;100597.28;;;23.28;100.00
44934;BME280;30667;43.614;1.442;2023-06-26T07:26:23;100594.50;;;23.40;100.00
44934;BME280;30667;43.614;1.442;2023-06-26T07:28:49;100589.84;;;23.28;100.00
44934;BME280;30667;43.614;1.442;2023-06-26T07:31:14;100590.44;;;23.21;100.00
44934;BME280;30667;43.614;1.442;2023-06-26T07:33:41;100595.22;;;23.25;100.00
44934;BME280;30667;43.614;1.442;2023-06-26T07:36:07;100595.81;;;23.30;100.00
44934;BME280;30667;43.614;1.442;2023-06-26T07:38:32;100597.88;;;23.33;100.00
44934;BME280;30667;43.614;1.442;2023-06-26T07:40:58;100597.00;;;23.73;100.00
44934;BME280;30667;43.614;1.442;2023-06-26T07:43:23;100588.38;;;23.75;100.00
44934;BME280;30667;43.614;1.442;2023-06-26T07:45:49;100591.09;;;23.59;100.00
44934;BME280;30667;43.614;1.442;2023-06-26T07:48:16;100600.66;;;23.62;100.00
44934;BME280;30667;43.614;1.442;2023-06-26T07:50:42;100592.59;;;23.56;100.00
44934;BME280;30667;43.614;1.442;2023-06-26T07:53:07;100598.84;;;23.53;100.00
44934;BME280;30667;43.614;1.442;2023-06-26T07:55:33;100588.78;;;23.61;100.00
44934;BME280;30667;43.614;1.442;2023-06-26T07:57:58;100582.22;;;23.82;100.00
44934;BME280;30667;43.614;1.442;2023-06-26T08:00:24;100582.94;;;23.79;100.00
44934;BME280;30667;43.614;1.442;2023-06-26T08:02:49;100582.22;;;23.82;100.00
44934;BME280;30667;43.614;1.442;2023-06-26T08:05:15;100587.88;;;23.85;100.00
44934;BME280;30667;43.614;1.442;2023-06-26T08:07:40;100582.50;;;23.76;100.00
44934;BME280;30667;43.614;1.442;2023-06-26T08:10:06;100584.31;;;23.85;100.00
44934;BME280;30667;43.614;1.442;2023-06-26T08:12:31;100580.34;;;23.98;100.00
44934;BME280;30667;43.614;1.442;2023-06-26T08:14:57;100578.63;;;23.93;100.00
44934;BME280;30667;43.614;1.442;2023-06-26T08:17:22;100586.53;;;23.79;100.00
44934;BME280;30667;43.614;1.442;2023-06-26T08:19:47;100588.34;;;23.59;100.00
44934;BME280;30667;43.614;1.442;2023-06-26T08:22:13;100588.41;;;23.63;100.00
44934;BME280;30667;43.614;1.442;2023-06-26T08:24:38;100581.22;;;23.74;100.00
44934;BME280;30667;43.614;1.442;2023-06-26T08:27:04;100588.19;;;23.68;100.00
44934;BME280;30667;43.614;1.442;2023-06-26T08:29:31;100587.72;;;23.66;100.00
44934;BME280;30667;43.614;1.442;2023-06-26T08:31:56;100582.66;;;23.68;100.00
44934;BME280;30667;43.614;1.442;2023-06-26T08:34:21;100580.78;;;23.72;100.00
44934;BME280;30667;43.614;1.442;2023-06-26T08:36:47;100582.59;;;23.80;100.00
44934;BME280;30667;43.614;1.442;2023-06-26T08:39:12;100583.28;;;23.77;100.00
44934;BME280;30667;43.614;1.442;2023-06-26T08:41:38;100573.81;;;23.90;100.00
44934;BME280;30667;43.614;1.442;2023-06-26T08:44:03;100585.88;;;23.70;100.00
44934;BME280;30667;43.614;1.442;2023-06-26T08:46:30;100581.22;;;23.74;100.00
44934;BME280;30667;43.614;1.442;2023-06-26T08:49:00;100578.88;;;23.88;100.00
44934;BME280;30667;43.614;1.442;2023-06-26T08:51:28;100575.22;;;23.84;100.00
44934;BME280;30667;43.614;1.442;2023-06-26T08:54:06;100582.13;;;23.78;100.00
44934;BME280;30667;43.614;1.442;2023-06-26T08:56:40;100574.69;;;23.94;100.00
44934;BME280;30667;43.614;1.442;2023-06-26T08:59:08;100577.38;;;23.91;100.00
44934;BME280;30667;43.614;1.442;2023-06-26T09:01:36;100580.34;;;23.98;100.00
44934;BME280;30667;43.614;1.442;2023-06-26T09:04:02;100577.56;;;23.98;100.00
44934;BME280;30667;43.614;1.442;2023-06-26T09:06:28;100579.44;;;24.10;100.00
44934;BME280;30667;43.614;1.442;2023-06-26T09:08:53;100584.06;;;23.90;100.00
44934;BME280;30667;43.614;1.442;2023-06-26T09:11:19;100591.03;;;23.84;100.00
44934;BME280;30667;43.614;1.442;2023-06-26T09:13:44;100581.63;;;23.88;100.00
44934;BME280;30667;43.614;1.442;2023-06-26T09:16:12;100586.97;;;23.81;100.00
44934;BME280;30667;43.614;1.442;2023-06-26T09:18:40;100585.50;;;23.84;100.00
44934;BME280;30667;43.614;1.442;2023-06-26T09:21:10;100584.41;;;23.88;100.00
44934;BME280;30667;43.614;1.442;2023-06-26T09:23:36;100579.53;;;23.98;100.00
44934;BME280;30667;43.614;1.442;2023-06-26T09:26:05;100578.91;;;24.04;100.00
44934;BME280;30667;43.614;1.442;2023-06-26T09:28:32;100586.38;;;24.04;100.00
44934;BME280;30667;43.614;1.442;2023-06-26T09:31:06;100593.53;;;24.21;100.00
44934;BME280;30667;43.614;1.442;2023-06-26T09:33:35;100587.81;;;24.29;100.00
44934;BME280;30667;43.614;1.442;2023-06-26T09:36:08;100592.72;;;24.20;100.00
44934;BME280;30667;43.614;1.442;2023-06-26T09:38:36;100596.94;;;24.14;100.00
44934;BME280;30667;43.614;1.442;2023-06-26T09:41:03;100598.59;;;24.03;100.00
44934;BME280;30667;43.614;1.442;2023-06-26T09:43:28;100591.63;;;23.93;100.00
44934;BME280;30667;43.614;1.442;2023-06-26T09:45:54;100600.28;;;23.91;100.00
44934;BME280;30667;43.614;1.442;2023-06-26T09:48:20;100596.88;;;23.82;100.00
44934;BME280;30667;43.614;1.442;2023-06-26T09:50:53;100590.03;;;23.92;100.00
44934;BME280;30667;43.614;1.442;2023-06-26T09:53:19;100596.91;;;23.98;100.00
44934;BME280;30667;43.614;1.442;2023-06-26T09:55:45;100588.66;;;24.14;100.00
44934;BME280;30667;43.614;1.442;2023-06-26T09:58:12;100599.69;;;24.14;100.00
44934;BME280;30667;43.614;1.442;2023-06-26T10:00:43;100590.66;;;24.17;100.00
44934;BME280;30667;43.614;1.442;2023-06-26T10:03:10;100600.41;;;23.95;100.00
44934;BME280;30667;43.614;1.442;2023-06-26T10:05:40;100609.06;;;23.81;100.00
44934;BME280;30667;43.614;1.442;2023-06-26T10:08:08;100598.97;;;23.73;100.00
44934;BME280;30667;43.614;1.442;2023-06-26T10:10:36;100599.94;;;23.65;100.00
44934;BME280;30667;43.614;1.442;2023-06-26T10:13:15;100600.44;;;23.54;100.00
44934;BME280;30667;43.614;1.442;2023-06-26T10:15:45;100602.59;;;23.61;100.00
44934;BME280;30667;43.614;1.442;2023-06-26T10:18:12;100595.00;;;23.58;100.00
44934;BME280;30667;43.614;1.442;2023-06-26T10:20:48;100605.28;;;23.45;100.00
44934;BME280;30667;43.614;1.442;2023-06-26T10:26:21;100608.06;;;23.45;100.00
44934;BME280;30667;43.614;1.442;2023-06-26T10:28:47;100605.69;;;23.60;100.00
44934;BME280;30667;43.614;1.442;2023-06-26T10:31:20;100610.69;;;23.54;100.00
44934;BME280;30667;43.614;1.442;2023-06-26T10:33:55;100609.41;;;23.51;100.00
44934;BME280;30667;43.614;1.442;2023-06-26T10:36:28;100607.13;;;23.53;100.00
44934;BME280;30667;43.614;1.442;2023-06-26T10:39:04;100600.16;;;23.60;100.00
44934;BME280;30667;43.614;1.442;2023-06-26T10:41:40;100608.72;;;23.54;100.00
44934;BME280;30667;43.614;1.442;2023-06-26T10:44:17;100607.06;;;23.66;100.00
44934;BME280;30667;43.614;1.442;2023-06-26T10:46:56;100609.41;;;23.80;100.00
44934;BME280;30667;43.614;1.442;2023-06-26T10:49:31;100607.25;;;23.73;100.00
44934;BME280;30667;43.614;1.442;2023-06-26T10:52:01;100612.50;;;23.62;100.00
44934;BME280;30667;43.614;1.442;2023-06-26T10:54:32;100604.19;;;23.62;100.00
44934;BME280;30667;43.614;1.442;2023-06-26T10:56:58;100605.22;;;23.70;100.00
44934;BME280;30667;43.614;1.442;2023-06-26T10:59:26;100618.00;;;23.62;100.00
44934;BME280;30667;43.614;1.442;2023-06-26T11:02:04;100610.69;;;23.54;100.00
44934;BME280;30667;43.614;1.442;2023-06-26T11:04:49;100611.28;;;23.47;100.00
44934;BME280;30667;43.614;1.442;2023-06-26T11:09:59;100615.63;;;23.48;100.00
44934;BME280;30667;43.614;1.442;2023-06-26T11:12:44;100612.69;;;23.41;100.00
44934;BME280;30667;43.614;1.442;2023-06-26T11:15:17;100609.41;;;23.51;100.00
44934;BME280;30667;43.614;1.442;2023-06-26T11:17:44;100614.69;;;23.56;100.00
44934;BME280;30667;43.614;1.442;2023-06-26T11:20:12;100606.78;;;23.71;100.00
44934;BME280;30667;43.614;1.442;2023-06-26T11:22:39;100606.56;;;23.76;100.00
44934;BME280;30667;43.614;1.442;2023-06-26T11:25:06;100606.63;;;23.92;100.00
44934;BME280;30667;43.614;1.442;2023-06-26T11:27:32;100598.06;;;23.97;100.00
44934;BME280;30667;43.614;1.442;2023-06-26T11:30:03;100592.19;;;23.99;100.00
44934;BME280;30667;43.614;1.442;2023-06-26T11:32:28;100600.41;;;24.11;100.00
44934;BME280;30667;43.614;1.442;2023-06-26T11:34:54;100594.69;;;24.04;100.00
44934;BME280;30667;43.614;1.442;2023-06-26T11:37:21;100597.28;;;24.13;100.00
44934;BME280;30667;43.614;1.442;2023-06-26T11:39:46;100592.47;;;24.25;100.00
44934;BME280;30667;43.614;1.442;2023-06-26T11:42:11;100594.78;;;24.23;100.00
44934;BME280;30667;43.614;1.442;2023-06-26T11:44:41;100588.09;;;24.24;100.00
44934;BME280;30667;43.614;1.442;2023-06-26T11:47:11;100595.31;;;24.13;100.00
44934;BME280;30667;43.614;1.442;2023-06-26T11:49:37;100588.44;;;24.07;100.00
44934;BME280;30667;43.614;1.442;2023-06-26T11:52:03;100596.75;;;24.23;100.00
44934;BME280;30667;43.614;1.442;2023-06-26T11:54:29;100591.50;;;24.34;100.00
44934;BME280;30667;43.614;1.442;2023-06-26T11:56:56;100582.91;;;24.39;100.00
44934;BME280;30667;43.614;1.442;2023-06-26T11:59:22;100589.78;;;24.45;100.00
44934;BME280;30667;43.614;1.442;2023-06-26T12:01:49;100591.50;;;24.50;100.00
44934;BME280;30667;43.614;1.442;2023-06-26T12:04:17;100590.88;;;24.40;100.00
44934;BME280;30667;43.614;1.442;2023-06-26T12:06:50;100595.47;;;24.52;100.00
44934;BME280;30667;43.614;1.442;2023-06-26T12:09:18;100596.47;;;24.44;100.00
44934;BME280;30667;43.614;1.442;2023-06-26T12:11:44;100593.19;;;24.38;100.00
44934;BME280;30667;43.614;1.442;2023-06-26T12:14:14;100585.13;;;24.33;100.00
44934;BME280;30667;43.614;1.442;2023-06-26T12:16:40;100583.00;;;24.26;100.00
44934;BME280;30667;43.614;1.442;2023-06-26T12:19:07;100584.34;;;24.33;100.00
44934;BME280;30667;43.614;1.442;2023-06-26T12:24:01;100578.53;;;24.54;100.00
44934;BME280;30667;43.614;1.442;2023-06-26T12:26:27;100575.06;;;24.57;100.00
44934;BME280;30667;43.614;1.442;2023-06-26T12:29:01;100575.06;;;24.57;100.00
44934;BME280;30667;43.614;1.442;2023-06-26T12:31:27;100573.72;;;24.51;100.00
44934;BME280;30667;43.614;1.442;2023-06-26T12:33:52;100570.44;;;24.61;100.00
44934;BME280;30667;43.614;1.442;2023-06-26T12:36:18;100566.13;;;24.63;100.00
44934;BME280;30667;43.614;1.442;2023-06-26T12:38:45;100568.03;;;24.59;100.00
44934;BME280;30667;43.614;1.442;2023-06-26T12:41:12;100571.78;;;24.67;100.00
44934;BME280;30667;43.614;1.442;2023-06-26T12:43:40;100565.88;;;24.69;100.00
44934;BME280;30667;43.614;1.442;2023-06-26T12:46:06;100566.47;;;24.78;100.00
44934;BME280;30667;43.614;1.442;2023-06-26T12:48:41;100560.50;;;24.76;100.00
44934;BME280;30667;43.614;1.442;2023-06-26T12:51:17;100551.09;;;24.80;100.00
44934;BME280;30667;43.614;1.442;2023-06-26T12:53:43;100554.78;;;24.84;100.00
44934;BME280;30667;43.614;1.442;2023-06-26T12:56:09;100563.44;;;24.83;100.00